createdAt,value
2018-12-11T00:05:01.819Z,0.00
2018-12-11T00:10:05.949Z,-0.10
2018-12-11T00:15:09.640Z,-0.20
2018-12-11T00:20:13.288Z,-0.30
2018-12-11T00:25:16.837Z,-0.30
2018-12-11T00:30:20.343Z,-0.30
2018-12-11T00:35:23.836Z,-0.30
2018-12-11T00:40:27.583Z,-0.30
2018-12-11T00:45:31.150Z,-0.50
2018-12-11T00:50:35.764Z,-0.50
2018-12-11T00:55:39.407Z,-0.60
2018-12-11T01:00:42.997Z,-0.50
2018-12-11T01:05:46.972Z,-0.50
2018-12-11T01:10:50.813Z,-0.20
2018-12-11T01:15:54.851Z,0.00
2018-12-11T01:20:58.602Z,0.00
2018-12-11T01:26:02.328Z,-0.10
2018-12-11T01:31:06.295Z,-0.30
2018-12-11T01:36:10.058Z,-0.50
2018-12-11T01:41:13.517Z,-0.60
2018-12-11T01:46:16.982Z,-0.40
2018-12-11T01:51:20.790Z,-0.10
2018-12-11T01:56:24.273Z,0.10
2018-12-11T02:01:28.164Z,0.20
2018-12-11T02:06:32.296Z,0.40
2018-12-11T02:11:36.879Z,0.50
2018-12-11T02:16:40.429Z,0.60
2018-12-11T02:21:44.013Z,0.60
2018-12-11T02:26:47.515Z,0.60
2018-12-11T02:31:51.491Z,0.70
2018-12-11T02:36:55.093Z,0.70
2018-12-11T02:41:58.773Z,0.60
2018-12-11T02:47:02.539Z,0.60
2018-12-11T02:52:07.158Z,0.60
2018-12-11T02:57:10.892Z,0.60
2018-12-11T03:02:14.571Z,0.60
2018-12-11T03:07:18.262Z,0.70
2018-12-11T03:12:21.803Z,0.70
2018-12-11T03:17:25.413Z,0.70
2018-12-11T03:22:28.923Z,0.70
2018-12-11T03:27:32.567Z,0.60
2018-12-11T03:32:36.081Z,0.60
2018-12-11T03:37:39.583Z,0.60
2018-12-11T03:42:43.153Z,0.70
2018-12-11T03:47:46.902Z,0.80
2018-12-11T03:52:50.511Z,0.80
2018-12-11T03:57:53.976Z,0.80
2018-12-11T04:02:57.416Z,0.80
2018-12-11T04:08:01.305Z,0.80
2018-12-11T04:13:04.740Z,0.90
2018-12-11T04:18:08.692Z,0.80
2018-12-11T04:23:12.465Z,0.80
2018-12-11T04:28:16.064Z,0.80
2018-12-11T04:33:19.533Z,0.80
2018-12-11T04:38:22.973Z,0.80
2018-12-11T04:43:26.508Z,0.80
2018-12-11T04:48:29.994Z,0.80
2018-12-11T04:53:33.450Z,0.90
2018-12-11T04:58:36.888Z,0.90
2018-12-11T05:03:40.656Z,0.90
2018-12-11T05:08:44.142Z,0.90
2018-12-11T05:13:47.576Z,0.90
2018-12-11T05:18:51.067Z,0.90
2018-12-11T05:23:54.571Z,0.90
2018-12-11T05:28:58.340Z,0.90
2018-12-11T05:34:02.129Z,0.80
2018-12-11T05:39:08.113Z,0.70
2018-12-11T05:44:11.987Z,0.70
2018-12-11T05:49:16.300Z,0.80
2018-12-11T05:54:20.097Z,0.80
2018-12-11T05:59:23.959Z,0.80
2018-12-11T06:04:27.408Z,0.80
2018-12-11T06:09:30.852Z,0.70
2018-12-11T06:14:34.574Z,0.70
2018-12-11T06:19:38.128Z,0.80
2018-12-11T06:24:41.652Z,0.90
2018-12-11T06:29:47.087Z,0.90
2018-12-11T06:34:51.346Z,0.90
2018-12-11T06:39:55.632Z,0.90
2018-12-11T06:44:59.735Z,0.80
2018-12-11T06:50:04.349Z,0.90
2018-12-11T06:55:08.046Z,0.90
2018-12-11T07:00:11.507Z,0.90
2018-12-11T07:05:15.033Z,0.90
2018-12-11T07:10:18.554Z,0.90
2018-12-11T07:15:23.159Z,1.00
2018-12-11T07:20:27.154Z,1.00
2018-12-11T07:25:30.904Z,1.00
2018-12-11T07:30:35.143Z,1.00
2018-12-11T07:35:39.426Z,1.00
2018-12-11T07:40:43.151Z,1.00
2018-12-11T07:45:46.615Z,1.00
2018-12-11T07:50:50.085Z,1.10
2018-12-11T07:55:53.525Z,1.10
2018-12-11T08:00:56.964Z,1.10
2018-12-11T08:06:00.450Z,1.20
2018-12-11T08:11:03.968Z,1.20
2018-12-11T08:16:07.639Z,1.20
2018-12-11T08:21:11.076Z,1.20
2018-12-11T08:26:14.730Z,1.30
2018-12-11T08:31:18.183Z,1.20
2018-12-11T08:36:21.660Z,1.20
2018-12-11T08:41:25.255Z,1.30
2018-12-11T08:46:28.933Z,1.40
2018-12-11T08:51:32.379Z,1.50
2018-12-11T08:56:35.926Z,1.70
2018-12-11T09:01:39.390Z,1.90
2018-12-11T09:06:43.954Z,1.80
2018-12-11T09:11:47.462Z,2.00
2018-12-11T09:16:51.858Z,2.20
2018-12-11T09:21:56.289Z,2.20
2018-12-11T09:27:00.932Z,2.20
2018-12-11T09:32:05.450Z,2.30
2018-12-11T09:37:09.177Z,2.70
2018-12-11T09:42:12.679Z,3.00
2018-12-11T09:47:16.254Z,3.00
2018-12-11T09:52:19.766Z,2.80
2018-12-11T09:57:23.232Z,2.60
2018-12-11T10:02:26.956Z,2.70
2018-12-11T10:07:30.436Z,3.30
2018-12-11T10:12:33.947Z,3.60
2018-12-11T10:17:37.818Z,3.70
2018-12-11T10:22:41.271Z,3.60
2018-12-11T10:27:44.736Z,3.60
2018-12-11T10:32:52.225Z,3.40
2018-12-11T10:37:56.767Z,3.30
2018-12-11T10:43:01.255Z,3.20
2018-12-11T10:48:04.898Z,3.30
2018-12-11T10:53:08.608Z,3.40
2018-12-11T10:58:12.111Z,3.90
2018-12-11T11:03:15.587Z,4.40
2018-12-11T11:08:19.415Z,4.40
2018-12-11T11:13:23.519Z,4.30
2018-12-11T11:18:27.462Z,4.40
2018-12-11T11:23:31.475Z,4.40
2018-12-11T11:28:36.006Z,4.50
2018-12-11T11:33:39.799Z,4.70
2018-12-11T11:38:44.208Z,4.60
2018-12-11T11:43:47.778Z,4.60
2018-12-11T11:48:51.260Z,4.80
2018-12-11T11:53:55.199Z,4.60
2018-12-11T11:58:59.966Z,4.60
2018-12-11T12:04:03.797Z,4.40
2018-12-11T12:09:07.904Z,4.50
2018-12-11T12:14:11.418Z,4.50
2018-12-11T12:19:14.890Z,4.30
2018-12-11T12:24:18.673Z,3.90
2018-12-11T12:29:22.127Z,3.90
2018-12-11T12:34:25.613Z,4.00
2018-12-11T12:39:29.073Z,4.20
2018-12-11T12:44:32.621Z,4.30
2018-12-11T12:49:36.066Z,4.10
2018-12-11T12:54:39.549Z,4.10
2018-12-11T12:59:42.996Z,4.20
2018-12-11T13:04:46.464Z,4.00
2018-12-11T13:09:49.886Z,4.10
2018-12-11T13:14:53.379Z,4.00
2018-12-11T13:19:56.954Z,4.10
2018-12-11T13:25:00.467Z,4.10
2018-12-11T13:30:04.325Z,4.10
2018-12-11T13:35:07.965Z,4.10
2018-12-11T13:40:11.414Z,4.00
2018-12-11T13:45:15.583Z,4.00
2018-12-11T13:50:19.871Z,3.90
2018-12-11T13:55:23.951Z,3.90
2018-12-11T14:00:27.754Z,3.80
2018-12-11T14:05:32.214Z,3.70
2018-12-11T14:10:35.683Z,3.50
2018-12-11T14:15:39.484Z,3.40
2018-12-11T14:20:42.947Z,3.30
2018-12-11T14:25:46.437Z,3.30
2018-12-11T14:30:49.959Z,3.30
2018-12-11T14:35:53.468Z,3.30
2018-12-11T14:40:56.938Z,3.20
2018-12-11T14:46:00.403Z,3.10
2018-12-11T14:51:04.020Z,3.00
2018-12-11T14:56:07.689Z,2.80
2018-12-11T15:01:11.175Z,2.80
2018-12-11T15:06:14.630Z,2.70
2018-12-11T15:11:18.091Z,2.60
2018-12-11T15:16:21.933Z,2.50
2018-12-11T15:21:25.846Z,2.40
2018-12-11T15:26:30.032Z,2.20
2018-12-11T15:31:33.740Z,2.20
2018-12-11T15:36:37.822Z,2.00
2018-12-11T15:41:41.595Z,1.80
2018-12-11T15:46:45.761Z,1.60
2018-12-11T15:51:49.571Z,1.50
2018-12-11T15:56:53.137Z,1.40
2018-12-11T16:01:56.657Z,1.30
2018-12-11T16:07:00.240Z,1.10
2018-12-11T16:12:03.951Z,1.00
2018-12-11T16:17:07.501Z,0.90
2018-12-11T16:22:10.955Z,0.80
2018-12-11T16:27:15.014Z,0.80
2018-12-11T16:32:18.550Z,0.70
2018-12-11T16:37:22.160Z,0.60
2018-12-11T16:42:25.679Z,0.50
2018-12-11T16:47:29.254Z,0.50
2018-12-11T16:52:32.744Z,0.40
2018-12-11T16:57:36.600Z,0.30
2018-12-11T17:02:40.458Z,0.20
2018-12-11T17:07:44.482Z,0.10
2018-12-11T17:12:48.845Z,-0.10
2018-12-11T17:17:52.772Z,-0.20
2018-12-11T17:22:56.288Z,-0.30
2018-12-11T17:28:00.140Z,-0.40
2018-12-11T17:33:03.614Z,-0.50
2018-12-11T17:38:07.130Z,-0.50
2018-12-11T17:43:10.637Z,-0.40
2018-12-11T17:48:14.560Z,-0.40
2018-12-11T17:53:19.267Z,-0.40
2018-12-11T17:58:23.147Z,-0.50
2018-12-11T18:03:27.051Z,-0.50
2018-12-11T18:08:30.841Z,-0.60
2018-12-11T18:13:34.605Z,-0.40
2018-12-11T18:18:38.642Z,-0.30
2018-12-11T18:23:42.376Z,-0.30
2018-12-11T18:28:46.331Z,-0.20
2018-12-11T18:33:50.648Z,-0.20
2018-12-11T18:38:54.416Z,-0.20
2018-12-11T18:43:57.960Z,-0.10
2018-12-11T18:49:01.552Z,-0.20
2018-12-11T18:54:05.077Z,-0.20
2018-12-11T18:59:08.782Z,-0.20
2018-12-11T19:04:12.300Z,-0.20
2018-12-11T19:09:15.878Z,-0.20
2018-12-11T19:14:20.005Z,-0.10
2018-12-11T19:19:24.492Z,-0.10
2018-12-11T19:24:36.155Z,0.00
2018-12-11T19:29:39.674Z,0.00
2018-12-11T19:34:43.171Z,0.00
2018-12-11T19:39:46.607Z,0.00
2018-12-11T19:44:50.196Z,-0.10
2018-12-11T19:49:53.681Z,-0.10
2018-12-11T19:54:57.221Z,0.00
2018-12-11T20:00:00.906Z,0.00
2018-12-11T20:05:04.920Z,0.10
2018-12-11T20:10:13.779Z,0.20
2018-12-11T20:15:18.637Z,0.20
2018-12-11T20:20:26.310Z,0.20
2018-12-11T20:25:30.105Z,0.20
2018-12-11T20:30:33.954Z,0.10
2018-12-11T20:35:37.476Z,0.20
2018-12-11T20:40:41.060Z,0.10
2018-12-11T20:45:45.327Z,0.20
2018-12-11T20:50:49.281Z,0.20
2018-12-11T20:55:53.163Z,0.30
2018-12-11T21:00:56.840Z,0.30
2018-12-11T21:06:01.687Z,0.20
2018-12-11T21:11:05.640Z,0.30
2018-12-11T21:16:11.059Z,0.20
2018-12-11T21:21:15.385Z,0.20
2018-12-11T21:26:19.958Z,0.20
2018-12-11T21:31:24.922Z,0.10
2018-12-11T21:36:30.460Z,0.10
2018-12-11T21:41:34.282Z,0.10
2018-12-11T21:46:39.590Z,0.10
2018-12-11T21:51:44.162Z,0.10
2018-12-11T21:56:49.034Z,0.10
2018-12-11T22:01:54.665Z,0.00
2018-12-11T22:06:58.513Z,-0.10
2018-12-11T22:12:04.098Z,-0.10
2018-12-11T22:17:07.675Z,-0.10
2018-12-11T22:22:11.129Z,-0.10
2018-12-11T22:27:14.817Z,-0.20
2018-12-11T22:32:19.866Z,-0.40
2018-12-11T22:37:26.258Z,-0.50
2018-12-11T22:42:30.120Z,-0.70
2018-12-11T22:47:33.901Z,-0.90
2018-12-11T22:52:37.459Z,-1.00
2018-12-11T22:57:41.584Z,-1.20
2018-12-11T23:02:45.811Z,-1.30
2018-12-11T23:07:49.798Z,-1.40
2018-12-11T23:12:54.376Z,-1.40
2018-12-11T23:17:58.567Z,-1.30
2018-12-11T23:23:02.151Z,-1.20
2018-12-11T23:28:05.624Z,-1.10
2018-12-11T23:33:09.270Z,-1.00
2018-12-11T23:38:13.075Z,-1.00
2018-12-11T23:43:16.583Z,-0.90
2018-12-11T23:48:20.228Z,-0.80
2018-12-11T23:53:23.719Z,-0.80
2018-12-11T23:58:27.202Z,-0.80
